Corvallis, Oregon
Current Conditions -  °F | °C
As of 9:35 PM on Wednesday 17 Dec 2014 (Local Time) from KCVO Reporting Station
Overcast Overcast  
Wind Chill: 48°   Ceiling: 4000
Heat Index: 48°   Visibility: 10mi
Dew Point: 45°   Wind: 3mph
Humidity: 87%   Direction: 250°WSW
Pressure: 29.98"   Gusts: NA
Location:  44.57°N, 123.26°W
Report Text: KCVO 180535Z AUTO 25003KT 10SM BKN040 OVC050 09/07 A2998 RMK AO1
Loading
Personal Weather Stations






























Interactive Weather Map New forecast layout! Learn more

10-Day Weather Forecast

Advertisements
Track Severe Weather on mobile